createdAt,value
2023-04-04T00:01:39.180Z,1.97
2023-04-04T00:06:45.856Z,4.20
2023-04-04T00:11:49.313Z,6.70
2023-04-04T00:16:52.673Z,3.33
2023-04-04T00:21:57.531Z,6.23
2023-04-04T00:27:00.937Z,4.50
2023-04-04T00:32:04.381Z,2.77
2023-04-04T00:37:12.314Z,1.63
2023-04-04T00:42:15.771Z,2.20
2023-04-04T00:47:19.146Z,5.83
2023-04-04T00:52:23.920Z,2.40
2023-04-04T00:57:28.921Z,2.10
2023-04-04T01:02:32.411Z,1.70
2023-04-04T01:07:37.710Z,4.73
2023-04-04T01:12:42.809Z,4.03
2023-04-04T01:17:46.370Z,2.63
2023-04-04T01:22:52.954Z,2.10
2023-04-04T01:27:57.601Z,2.87
2023-04-04T01:33:08.525Z,4.17
2023-04-04T01:38:19.401Z,4.40
2023-04-04T01:43:24.213Z,2.47
2023-04-04T01:48:28.026Z,2.57
2023-04-04T01:53:31.397Z,2.33
2023-04-04T01:58:36.154Z,3.90
2023-04-04T02:03:39.520Z,3.13
2023-04-04T02:08:43.387Z,4.60
2023-04-04T02:13:48.547Z,5.03
2023-04-04T02:18:51.919Z,1.57
2023-04-04T02:23:55.386Z,4.67
2023-04-04T02:29:00.570Z,3.80
2023-04-04T02:34:04.327Z,3.10
2023-04-04T02:39:07.677Z,3.70
2023-04-04T02:44:12.481Z,2.57
2023-04-04T02:49:15.790Z,3.87
2023-04-04T02:54:19.067Z,3.00
2023-04-04T02:59:23.774Z,4.80
2023-04-04T03:04:27.366Z,3.00
2023-04-04T03:09:30.578Z,4.87
2023-04-04T03:14:35.278Z,5.03
2023-04-04T03:19:38.622Z,7.23
2023-04-04T03:24:41.845Z,6.07
2023-04-04T03:29:46.518Z,3.57
2023-04-04T03:34:49.828Z,3.73
2023-04-04T03:39:53.110Z,5.97
2023-04-04T03:44:57.758Z,3.10
2023-04-04T03:50:01.242Z,3.47
2023-04-04T03:55:04.546Z,2.57
2023-04-04T04:00:11.851Z,5.60
2023-04-04T04:05:15.281Z,3.10
2023-04-04T04:10:18.527Z,3.57
2023-04-04T04:15:23.292Z,3.77
2023-04-04T04:20:26.644Z,4.03
2023-04-04T04:25:30.038Z,3.97
2023-04-04T04:30:34.869Z,7.83
2023-04-04T04:35:39.144Z,7.73
2023-04-04T04:40:43.069Z,3.63
2023-04-04T04:45:47.786Z,7.27
2023-04-04T04:50:51.374Z,4.13
2023-04-04T04:55:54.746Z,4.10
2023-04-04T05:00:59.424Z,2.77
2023-04-04T05:06:02.812Z,4.20
2023-04-04T05:11:06.124Z,4.90
2023-04-04T05:16:11.088Z,3.37
2023-04-04T05:21:14.418Z,9.03
2023-04-04T05:26:17.834Z,8.07
2023-04-04T05:31:22.690Z,3.67
2023-04-04T05:36:26.108Z,3.70
2023-04-04T05:41:29.464Z,7.33
2023-04-04T05:46:34.196Z,6.40
2023-04-04T05:51:38.504Z,3.53
2023-04-04T05:56:41.949Z,6.20
2023-04-04T06:01:47.651Z,6.77
2023-04-04T06:06:53.565Z,5.23
2023-04-04T06:11:58.361Z,5.37
2023-04-04T06:17:09.849Z,3.50
2023-04-04T06:22:13.102Z,3.27
2023-04-04T06:27:16.627Z,5.43
2023-04-04T06:32:24.352Z,11.57
2023-04-04T06:37:27.793Z,6.73
2023-04-04T06:42:31.913Z,3.17
2023-04-04T06:47:38.944Z,2.70
2023-04-04T06:52:42.479Z,2.53
2023-04-04T06:57:46.857Z,2.22
2023-04-04T07:02:51.676Z,4.22
2023-04-04T07:07:58.405Z,7.82
2023-04-04T07:13:01.730Z,5.45
2023-04-04T07:18:06.435Z,4.10
2023-04-04T07:23:14.086Z,3.92
2023-04-04T07:28:17.463Z,14.40
2023-04-04T07:33:22.115Z,4.40
2023-04-04T07:38:25.453Z,3.58
2023-04-04T07:43:33.002Z,4.00
2023-04-04T07:48:37.681Z,3.03
2023-04-04T07:53:46.771Z,8.15
2023-04-04T07:58:52.389Z,4.97
2023-04-04T08:03:57.173Z,6.30
2023-04-04T08:09:02.654Z,4.75
2023-04-04T08:14:06.217Z,4.53
2023-04-04T08:19:12.617Z,8.38
2023-04-04T08:24:15.891Z,3.88
2023-04-04T08:29:21.291Z,3.70
2023-04-04T08:34:25.948Z,3.92
2023-04-04T08:39:29.184Z,5.60
2023-04-04T08:44:34.673Z,3.60
2023-04-04T08:49:44.039Z,8.05
2023-04-04T08:54:49.291Z,7.00
2023-04-04T08:59:54.224Z,3.85
2023-04-04T09:05:06.437Z,7.95
2023-04-04T09:10:17.284Z,2.75
2023-04-04T09:15:21.770Z,3.10
2023-04-04T09:20:42.906Z,3.63
2023-04-04T09:31:00.021Z,4.65
2023-04-04T09:36:10.366Z,4.82
2023-04-04T09:41:16.645Z,5.78
2023-04-04T09:46:22.935Z,5.07
2023-04-04T09:51:35.900Z,4.22
2023-04-04T09:56:40.286Z,2.58
2023-04-04T10:01:45.704Z,4.90
2023-04-04T10:06:57.415Z,3.13
2023-04-04T10:12:15.045Z,6.25
2023-04-04T10:17:18.633Z,3.22
2023-04-04T10:22:24.302Z,2.92
2023-04-04T10:27:27.989Z,4.47
2023-04-04T10:32:44.066Z,4.75
2023-04-04T10:37:56.810Z,3.40
2023-04-04T10:48:32.940Z,4.35
2023-04-04T10:53:41.696Z,4.72
2023-04-04T10:58:51.529Z,3.53
2023-04-04T11:04:20.341Z,6.38
2023-04-04T11:09:50.834Z,3.78
2023-04-04T11:15:16.461Z,5.20
2023-04-04T11:25:59.593Z,2.90
2023-04-04T11:31:26.883Z,5.05
2023-04-04T11:36:54.845Z,3.25
2023-04-04T11:42:08.321Z,3.22
2023-04-04T11:47:13.740Z,5.38
2023-04-04T11:52:18.869Z,3.65
2023-04-04T11:57:23.604Z,4.72
2023-04-04T12:02:32.177Z,4.03
2023-04-04T12:07:37.163Z,3.65
2023-04-04T12:12:42.933Z,7.93
2023-04-04T12:17:49.191Z,3.28
2023-04-04T12:22:55.972Z,4.35
2023-04-04T12:28:02.006Z,2.60
2023-04-04T12:33:05.975Z,3.40
2023-04-04T12:38:10.926Z,3.28
2023-04-04T12:43:20.859Z,4.60
2023-04-04T12:48:34.295Z,3.70
2023-04-04T12:53:52.288Z,7.13
2023-04-04T12:59:03.838Z,3.13
2023-04-04T13:04:10.005Z,9.10
2023-04-04T13:09:19.216Z,7.55
2023-04-04T13:14:26.671Z,5.88
2023-04-04T13:19:30.716Z,5.10
2023-04-04T13:24:33.962Z,3.55
2023-04-04T13:29:39.035Z,5.10
2023-04-04T13:34:42.703Z,3.08
2023-04-04T13:39:49.970Z,4.40
2023-04-04T13:44:54.585Z,4.88
2023-04-04T13:49:57.963Z,6.38
2023-04-04T13:55:02.437Z,2.88
2023-04-04T14:00:11.385Z,3.80
2023-04-04T14:05:14.806Z,7.75
2023-04-04T14:10:18.285Z,3.15
2023-04-04T14:15:24.998Z,6.53
2023-04-04T14:20:28.607Z,3.13
2023-04-04T14:25:32.057Z,6.32
2023-04-04T14:30:41.014Z,6.25
2023-04-04T14:35:44.344Z,2.30
2023-04-04T14:40:49.482Z,2.72
2023-04-04T14:45:57.508Z,4.15
2023-04-04T14:51:00.908Z,4.90
2023-04-04T14:56:04.772Z,5.63
2023-04-04T15:01:12.406Z,3.42
2023-04-04T15:06:16.225Z,3.47
2023-04-04T15:11:23.252Z,4.28
2023-04-04T15:16:30.216Z,3.58
2023-04-04T15:21:34.126Z,3.50
2023-04-04T15:26:43.176Z,4.55
2023-04-04T15:31:50.826Z,5.03
2023-04-04T15:36:54.445Z,2.38
2023-04-04T15:42:03.162Z,4.80
2023-04-04T15:47:07.939Z,3.70
2023-04-04T15:52:12.127Z,2.90
2023-04-04T15:57:15.416Z,3.65
2023-04-04T16:02:21.048Z,5.82
2023-04-04T16:07:24.439Z,3.67
2023-04-04T16:12:28.212Z,10.13
2023-04-04T16:17:33.380Z,6.00
2023-04-04T16:22:36.729Z,3.90
2023-04-04T16:27:40.254Z,7.90
2023-04-04T16:32:46.658Z,4.55
2023-04-04T16:37:49.946Z,3.85
2023-04-04T16:42:53.480Z,2.45
2023-04-04T16:47:58.306Z,8.40
2023-04-04T16:53:03.449Z,5.43
2023-04-04T16:58:07.090Z,3.58
2023-04-04T17:03:12.083Z,3.83
2023-04-04T17:08:15.474Z,2.95
2023-04-04T17:13:20.054Z,4.07
2023-04-04T17:18:24.960Z,6.20
2023-04-04T17:23:30.276Z,11.02
2023-04-04T17:28:33.617Z,5.80
2023-04-04T17:33:38.203Z,5.65
2023-04-04T17:38:42.012Z,5.72
2023-04-04T17:43:45.743Z,4.05
2023-04-04T17:48:51.518Z,3.53
2023-04-04T17:53:55.168Z,3.95
2023-04-04T17:58:58.913Z,4.28
2023-04-04T18:04:05.182Z,4.32
2023-04-04T18:09:11.379Z,4.65
2023-04-04T18:14:16.167Z,4.40
2023-04-04T18:19:20.929Z,5.13
2023-04-04T18:24:26.221Z,8.00
2023-04-04T18:29:31.750Z,4.23
2023-04-04T18:34:36.448Z,5.60
2023-04-04T18:39:40.092Z,3.67
2023-04-04T18:44:43.614Z,11.50
2023-04-04T18:49:48.313Z,6.53
2023-04-04T18:54:52.889Z,3.80
2023-04-04T18:59:56.384Z,7.83
2023-04-04T19:05:04.699Z,3.67
2023-04-04T19:10:10.019Z,3.50
2023-04-04T19:15:13.411Z,3.43
2023-04-04T19:20:18.431Z,4.77
2023-04-04T19:25:23.527Z,7.20
2023-04-04T19:30:47.538Z,7.03
2023-04-04T19:35:59.170Z,7.20
2023-04-04T19:41:04.478Z,6.77
2023-04-04T19:46:10.986Z,6.73
2023-04-04T19:51:47.248Z,8.70
2023-04-04T19:56:52.952Z,8.63
2023-04-04T20:02:00.513Z,9.43
2023-04-04T20:07:04.425Z,12.23
2023-04-04T20:12:11.969Z,6.73
2023-04-04T20:17:19.924Z,7.17
2023-04-04T20:22:24.406Z,6.23
2023-04-04T20:27:29.433Z,10.80
2023-04-04T20:32:32.880Z,8.20
2023-04-04T20:37:37.018Z,5.33
2023-04-04T20:42:42.375Z,7.73
2023-04-04T20:47:47.708Z,21.80
2023-04-04T20:52:53.522Z,63.77
2023-04-04T20:58:00.345Z,82.63
2023-04-04T21:03:11.068Z,60.20
2023-04-04T21:08:39.859Z,38.07
2023-04-04T21:13:46.474Z,15.30
2023-04-04T21:18:49.756Z,5.93
2023-04-04T21:23:54.377Z,7.17
2023-04-04T21:29:00.497Z,9.63
2023-04-04T21:34:12.756Z,6.47
2023-04-04T21:39:21.831Z,6.00
2023-04-04T21:44:27.672Z,7.40
2023-04-04T21:49:31.037Z,11.23
2023-04-04T21:54:34.350Z,6.47
2023-04-04T21:59:40.843Z,13.03
2023-04-04T22:04:44.465Z,6.27
2023-04-04T22:09:47.753Z,7.33
2023-04-04T22:14:53.606Z,5.97
2023-04-04T22:19:59.958Z,5.40
2023-04-04T22:25:06.217Z,6.43
2023-04-04T22:30:14.924Z,7.57
2023-04-04T22:35:18.442Z,6.73
2023-04-04T22:40:22.396Z,5.93
2023-04-04T22:45:29.681Z,5.73
2023-04-04T22:50:35.466Z,7.03
2023-04-04T22:55:38.715Z,8.00
2023-04-04T23:00:43.914Z,6.03
2023-04-04T23:05:47.183Z,5.97
2023-04-04T23:10:50.544Z,7.67
2023-04-04T23:15:55.744Z,5.77
2023-04-04T23:21:01.379Z,8.07
2023-04-04T23:26:06.322Z,7.27
2023-04-04T23:31:11.016Z,7.87
2023-04-04T23:36:15.818Z,10.70
2023-04-04T23:41:19.161Z,8.43
2023-04-04T23:46:24.061Z,8.83
2023-04-04T23:51:30.375Z,6.10
2023-04-04T23:56:33.678Z,7.37
